• Join FlightAware (Why Join?)
  • Login
  • US Flag 
01:20PM EST


 

Airport Tracker/Info


-or-


 

Live Flight TrackerFlight Track Log ✈ RPA3436 ✈ 30-Aug-2013 ✈ KDCA - KALB

Flight Track Log - Related Links

Times and Time Zones

All times are in EDT time to prevent confusion due to time zone crossing. See the RPA3436 flight status page for this flight to view local times or setup timezone preferences in your user account.

Time Position Orientation Groundspeed Altitude Reporting Facility
EDT Latitude Longitude Course Direction KTS MPH feet Rate Location/Type
10:23AM 38.8167 -77.0333 61° Northeast 154 177 1,700  Level Potomac TRACON
10:25AM 38.9636 -76.6925 67° East  Level FlightAware Approximate
10:25AM 38.7639 -76.9575 132° Southeast 188 216 5,300  Level Washington Center
10:26AM 39.0099 -76.5802 57° Northeast  Level FlightAware Approximate
10:26AM 38.8292 -76.9053 32° Northeast 152 175 8,800  Level Washington Center
10:27AM 39.0536 -76.4659 63° Northeast  Level FlightAware Approximate
10:27AM 38.8861 -76.8344 44° Northeast 219 252 10,900  Level Washington Center
10:28AM 39.1008 -76.3536 61° Northeast  Level FlightAware Approximate
10:28AM 38.9331 -76.7231 62° Northeast 292 336 13,000  Level Washington Center
10:29AM 38.9842 -76.6117 59° Northeast 330 380 15,100 2,160 Climbing Washington Center
10:30AM 39.0350 -76.4922 61° Northeast 352 405 17,400 1,920 Climbing Washington Center
10:31AM 39.0900 -76.3725 59° Northeast 375 432 19,000 1,740 Climbing Washington Center
10:32AM 39.1408 -76.2472 62° Northeast 386 444 21,000 1,740 Climbing Washington Center
10:33AM 39.1686 -76.1003 76° East 399 459 22,500 1,560 Climbing Washington Center
10:34AM 39.2067 -75.9639 70° East 404 465 24,100 1,560 Climbing Washington Center
10:35AM 39.2861 -75.8517 48° Northeast 404 465 25,700 1,440 Climbing Washington Center
10:36AM 39.3633 -75.7364 49° Northeast 410 472 27,000 600 Climbing Washington Center
10:37AM 39.4428 -75.6264 47° Northeast 415 478 27,000  Level Washington Center
10:38AM 39.5197 -75.5108 49° Northeast 415 478 27,000  Level Washington Center
10:39AM 39.5989 -75.3950 48° Northeast 415 478 27,000  Level Washington Center
10:41AM 39.7767 -75.1306 49° Northeast 424 488 27,000  Level New York Center
10:42AM 39.8558 -75.0164 48° Northeast 424 488 27,000  Level New York Center
10:43AM 39.9350 -74.8967 49° Northeast 424 488 27,000  Level New York Center
10:44AM 40.0161 -74.7822 47° Northeast 419 482 27,000  Level New York Center
10:45AM 40.0931 -74.6644 49° Northeast 424 488 27,000  Level New York Center
10:46AM 40.1719 -74.5467 49° Northeast 424 488 27,000  Level New York Center
10:47AM 40.2589 -74.4344 45° Northeast 429 494 27,000  Level New York Center
10:48AM 40.3514 -74.3358 39° Northeast 429 494 27,000  Level New York Center
10:50AM 40.5392 -74.1331 39° Northeast 437 503 27,000  Level Boston Center
10:51AM 40.6344 -74.0344 38° Northeast 432 497 27,000 -900 Level Boston Center
10:52AM 40.7253 -73.9381 39° Northeast 427 491 25,200 -1,500 Descending Boston Center
10:53AM 40.8119 -73.8442 39° Northeast 411 473 24,000 -720 Descending Boston Center
10:54AM 40.8944 -73.7389 44° Northeast 406 467 23,800 -480 Descending Boston Center
10:55AM 40.9792 -73.6306 44° Northeast 406 467 23,100 -420 Descending Boston Center
10:56AM 41.0614 -73.5356 41° Northeast 401 461 23,000 -720 Descending Boston Center
10:57AM 41.1436 -73.4350 43° Northeast 396 456 21,800 -1,380 Descending Boston Center
10:58AM 41.2236 -73.3397 42° Northeast 396 456 20,300 -1,560 Descending Boston Center
10:59AM 41.3236 -73.3247 North 357 411 18,700 -1,140 Descending Boston Center
11:00AM 41.4194 -73.3453 351° North 339 390 18,000 -360 Descending Boston Center
11:01AM 41.5253 -73.3717 349° North 345 397 18,000 -60 Level Boston Center
11:02AM 41.6231 -73.3981 349° North 357 411 17,900 -600 Descending Boston Center
11:03AM 41.7208 -73.4247 348° North 351 404 16,900 -1,020 Descending Boston Center
11:04AM 41.8167 -73.4483 350° North 351 404 15,900 -1,020 Descending Boston Center
11:05AM 41.9100 -73.4750 348° North 351 404 14,900 -1,500 Descending Boston Center
11:06AM 41.9975 -73.4961 350° North 345 397 13,000 -1,680 Descending Boston Center
11:07AM 42.0783 -73.5197 348° North 328 377 11,600 -1,020 Descending Boston Center
11:08AM 42.1594 -73.5575 341° North 313 360 11,000 -720 Descending Boston Center
11:09AM 42.2381 -73.6067 335° Northwest 307 353 10,200 -540 Descending Boston Center
11:10AM 42.3106 -73.6531 335° Northwest 295 339 10,000 -180 Descending Boston Center
11:11AM 42.3728 -73.6850 339° North 260 299 9,900 -1,260 Descending Boston Center
11:12AM 42.4347 -73.7228 336° Northwest 219 252 7,600 -2,160 Descending Boston Center
11:13AM 42.4844 -73.7547 335° Northwest 214 246 5,600 -1,980 Descending Boston Center
11:14AM 42.5467 -73.7900 337° Northwest 214 246 3,700 -1,500 Descending Boston Center
11:15AM 42.5694 -73.7989 344° North 196 226 3,400 -720 Descending Boston Center
11:15AM 42.5925 -73.7967 North 192 221 3,000 -960 Descending Boston Center
11:16AM 42.6278 -73.8003 356° North 176 203 2,400 -1,020 Descending Boston Center
11:17AM 42.6694 -73.8039 356° North 169 194 1,500 -840 Descending Boston Center
11:18AM 42.7069 -73.8047 359° North 131 151 800 -720 Descending Boston Center